Time;durP1;ratioP1;P1;durP2;ratioP2;P2;SDS_P1;SDS_P2;PMS_P1;PMS_P2;Temp;Humidity;BMP_temperature;BMP_pressure;BME280_temperature;BME280_humidity;BME280_pressure;Samples;Min_cycle;Max_cycle;Signal;HPM_P1;HPM_P2
2021/09/19 00:00:57;;;;;;;4.57;1.90;;;16.40;77.90;;;;;;5026852;28;20021;-74
2021/09/19 00:03:23;;;;;;;4.35;1.77;;;16.50;77.70;;;;;;5037240;28;20045;-74
2021/09/19 00:05:48;;;;;;;3.88;1.63;;;16.50;77.60;;;;;;5018681;28;20053;-74
2021/09/19 00:08:14;;;;;;;2.80;1.58;;;16.30;78.20;;;;;;5012733;28;20499;-74
2021/09/19 00:10:41;;;;;;;10.10;4.40;;;16.10;78.80;;;;;;5018565;28;20495;-74
2021/09/19 00:13:07;;;;;;;6.75;3.15;;;16.10;78.70;;;;;;5018769;28;20498;-74
2021/09/19 00:15:33;;;;;;;7.20;3.65;;;16.10;79.40;;;;;;5018359;28;20049;-74
2021/09/19 00:17:58;;;;;;;4.70;2.67;;;16.10;79.10;;;;;;5018482;28;20049;-74
2021/09/19 00:20:24;;;;;;;5.00;3.55;;;16.20;78.70;;;;;;5018095;28;20104;-74
2021/09/19 00:22:50;;;;;;;3.80;2.80;;;16.10;79.00;;;;;;5018307;28;20105;-74
2021/09/19 00:25:15;;;;;;;7.72;3.72;;;16.30;79.20;;;;;;5018170;28;20057;-74
2021/09/19 00:27:42;;;;;;;8.05;2.60;;;16.30;78.80;;;;;;5018512;28;20467;-74
2021/09/19 00:30:09;;;;;;;2.97;1.42;;;16.20;78.60;;;;;;5018167;28;20021;-74
2021/09/19 00:32:35;;;;;;;4.20;2.00;;;16.20;79.20;;;;;;5018125;28;20032;-74
2021/09/19 00:35:03;;;;;;;3.70;1.75;;;16.00;79.30;;;;;;5017363;28;20046;-74
2021/09/19 00:37:29;;;;;;;2.50;1.40;;;16.00;79.90;;;;;;5018213;28;20052;-74
2021/09/19 00:39:55;;;;;;;4.70;1.60;;;16.10;79.70;;;;;;5018097;28;20029;-74
2021/09/19 00:42:21;;;;;;;5.13;2.20;;;16.30;79.10;;;;;;5026470;28;20484;-74
2021/09/19 00:44:55;;;;;;;4.70;1.48;;;16.40;78.80;;;;;;5037759;28;20068;-74
2021/09/19 00:47:20;;;;;;;3.70;1.60;;;16.50;78.30;;;;;;5019428;28;20115;-74
2021/09/19 00:49:46;;;;;;;4.30;1.58;;;16.50;78.10;;;;;;5017876;28;20022;-74
2021/09/19 00:52:11;;;;;;;4.95;1.75;;;16.60;77.60;;;;;;5016445;28;20030;-74
2021/09/19 00:54:39;;;;;;;2.78;1.35;;;16.70;77.60;;;;;;5017549;28;20029;-74
2021/09/19 00:57:07;;;;;;;4.25;1.40;;;16.80;77.10;;;;;;5017709;28;20073;-74
2021/09/19 00:59:36;;;;;;;3.60;1.50;;;16.80;77.00;;;;;;5009015;28;20026;-74
2021/09/19 01:02:02;;;;;;;4.70;1.40;;;16.80;77.00;;;;;;5017702;28;20404;-74
2021/09/19 01:04:29;;;;;;;2.65;1.48;;;16.90;76.70;;;;;;5017236;28;20025;-74
2021/09/19 01:06:54;;;;;;;5.00;1.55;;;16.90;76.70;;;;;;5036881;28;20091;-74
2021/09/19 01:09:21;;;;;;;6.93;1.55;;;16.90;77.20;;;;;;5018760;28;20021;-74
2021/09/19 01:11:47;;;;;;;3.55;1.35;;;16.80;77.70;;;;;;5037125;28;20029;-74
2021/09/19 01:14:16;;;;;;;7.10;1.98;;;16.80;77.70;;;;;;5033341;28;20081;-74
2021/09/19 01:16:43;;;;;;;4.65;1.40;;;16.90;77.60;;;;;;5017398;28;20541;-74
2021/09/19 01:19:17;;;;;;;5.78;1.40;;;16.90;77.30;;;;;;4999510;28;20030;-74
2021/09/19 01:21:43;;;;;;;5.72;1.55;;;17.00;77.30;;;;;;5016907;28;20120;-74
2021/09/19 01:24:09;;;;;;;4.45;1.80;;;17.00;77.20;;;;;;5020294;28;20194;-74
2021/09/19 01:26:35;;;;;;;3.72;1.50;;;17.10;76.80;;;;;;5039110;28;20025;-74
2021/09/19 01:29:01;;;;;;;4.35;2.00;;;17.10;76.90;;;;;;5032553;28;20034;-74
2021/09/19 01:31:30;;;;;;;3.88;1.77;;;17.00;77.20;;;;;;5017016;28;20547;-74
2021/09/19 01:33:55;;;;;;;3.63;1.58;;;17.10;77.30;;;;;;5016788;28;20121;-74
2021/09/19 01:36:21;;;;;;;6.55;1.73;;;17.20;77.00;;;;;;5016913;28;20049;-74
2021/09/19 01:38:47;;;;;;;5.60;1.65;;;17.20;76.80;;;;;;5016717;28;20069;-74
2021/09/19 01:41:18;;;;;;;4.03;1.80;;;17.20;77.40;;;;;;4999173;28;20121;-74
2021/09/19 01:43:44;;;;;;;5.60;1.90;;;17.20;77.00;;;;;;5031020;28;20021;-74
2021/09/19 01:46:09;;;;;;;4.57;1.60;;;17.20;77.30;;;;;;4998744;28;20156;-74
2021/09/19 01:48:36;;;;;;;9.55;2.00;;;17.20;77.20;;;;;;5001160;28;20491;-74
2021/09/19 01:51:04;;;;;;;4.78;1.63;;;17.30;77.10;;;;;;5015259;28;20026;-74
2021/09/19 01:53:30;;;;;;;3.38;1.90;;;17.30;77.00;;;;;;5016636;28;20065;-74
2021/09/19 01:55:56;;;;;;;5.88;1.90;;;17.30;77.60;;;;;;5016336;28;20117;-74
2021/09/19 01:58:23;;;;;;;3.95;2.20;;;17.20;77.40;;;;;;5016652;28;20526;-74
2021/09/19 02:00:48;;;;;;;3.08;1.90;;;17.20;77.50;;;;;;4998813;28;20033;-73
2021/09/19 02:03:14;;;;;;;2.75;1.90;;;17.10;78.30;;;;;;5016249;28;20030;-74
2021/09/19 02:05:40;;;;;;;3.50;1.90;;;17.10;78.10;;;;;;5016746;28;20041;-74
2021/09/19 02:08:06;;;;;;;4.85;2.40;;;17.10;78.10;;;;;;5016516;28;20022;-75
2021/09/19 02:10:31;;;;;;;4.63;2.50;;;17.00;78.00;;;;;;5016041;28;20030;-74
2021/09/19 02:12:57;;;;;;;6.25;2.55;;;17.00;78.40;;;;;;4998414;28;20105;-74
2021/09/19 02:15:23;;;;;;;4.15;2.20;;;17.00;78.30;;;;;;5016290;28;20161;-74
2021/09/19 02:17:49;;;;;;;4.18;2.13;;;16.80;79.10;;;;;;5014930;28;20084;-74
2021/09/19 02:20:15;;;;;;;5.32;2.08;;;16.80;79.30;;;;;;5015931;28;21720;-74
2021/09/19 02:22:42;;;;;;;7.43;2.97;;;16.90;79.10;;;;;;5016210;28;20022;-73
2021/09/19 02:25:09;;;;;;;4.75;1.92;;;16.90;79.30;;;;;;4998400;28;20488;-74
2021/09/19 02:27:35;;;;;;;5.20;2.15;;;16.80;79.90;;;;;;5016165;28;20030;-74
2021/09/19 02:30:07;;;;;;;3.90;2.20;;;16.90;80.00;;;;;;5015782;28;20088;-74
2021/09/19 02:32:33;;;;;;;5.60;2.35;;;17.00;79.70;;;;;;5016150;28;20049;-74
2021/09/19 02:34:59;;;;;;;4.22;2.00;;;17.00;80.10;;;;;;5015714;28;20049;-74
2021/09/19 02:37:25;;;;;;;5.03;2.78;;;17.00;80.10;;;;;;5015784;28;20033;-74
2021/09/19 02:39:51;;;;;;;4.50;2.17;;;17.10;79.50;;;;;;5015817;28;20053;-74
2021/09/19 02:42:17;;;;;;;5.75;2.55;;;17.20;79.90;;;;;;5002593;28;20080;-74
2021/09/19 02:44:42;;;;;;;8.65;2.78;;;17.20;79.40;;;;;;5016215;28;20081;-74
2021/09/19 02:47:08;;;;;;;5.65;3.00;;;17.20;79.20;;;;;;5015768;28;20029;-74
2021/09/19 02:49:34;;;;;;;5.55;2.83;;;17.20;79.70;;;;;;5015755;28;20029;-74
2021/09/19 02:52:00;;;;;;;9.82;2.65;;;17.30;79.30;;;;;;5021629;28;20030;-74
2021/09/19 02:54:26;;;;;;;5.75;2.67;;;17.30;79.70;;;;;;5035494;28;20475;-74
2021/09/19 02:56:52;;;;;;;4.22;2.67;;;17.30;79.00;;;;;;5035433;28;20063;-74
2021/09/19 02:59:18;;;;;;;5.10;2.25;;;17.30;79.10;;;;;;5028528;28;20034;-74
2021/09/19 03:01:45;;;;;;;4.57;2.90;;;17.40;79.00;;;;;;5015563;28;20084;-74
2021/09/19 03:04:11;;;;;;;9.05;2.85;;;17.40;79.10;;;;;;5015277;28;20458;-74
2021/09/19 03:06:36;;;;;;;5.00;2.72;;;17.50;79.00;;;;;;5015677;28;20030;-74
2021/09/19 03:09:02;;;;;;;3.90;2.63;;;17.40;79.20;;;;;;5015338;28;20037;-74
2021/09/19 03:11:28;;;;;;;4.57;2.78;;;17.40;79.10;;;;;;4997634;28;20034;-74
2021/09/19 03:13:53;;;;;;;4.95;3.33;;;17.40;79.30;;;;;;5015476;28;20026;-74
2021/09/19 03:16:20;;;;;;;4.68;3.40;;;17.40;79.00;;;;;;5015338;28;20029;-74
2021/09/19 03:18:46;;;;;;;5.95;3.28;;;17.40;79.50;;;;;;4998454;28;20100;-74
2021/09/19 03:21:12;;;;;;;6.15;3.53;;;17.40;79.40;;;;;;5015544;28;20022;-74
2021/09/19 03:23:37;;;;;;;6.35;3.50;;;17.40;79.50;;;;;;4997626;28;20033;-74
2021/09/19 03:26:03;;;;;;;4.25;3.42;;;17.50;80.30;;;;;;5015400;28;20036;-74
2021/09/19 03:28:29;;;;;;;9.10;4.00;;;17.50;80.00;;;;;;5016734;28;20044;-74
2021/09/19 03:30:55;;;;;;;7.13;3.90;;;17.50;79.90;;;;;;5035129;28;20083;-74
2021/09/19 03:33:20;;;;;;;8.93;3.50;;;17.60;79.80;;;;;;5034697;28;20456;-74
2021/09/19 03:35:46;;;;;;;5.68;3.58;;;17.60;80.10;;;;;;5033504;28;20131;-74
2021/09/19 03:38:12;;;;;;;8.60;3.75;;;17.70;79.80;;;;;;5015358;28;20104;-74
2021/09/19 03:40:38;;;;;;;6.40;3.15;;;17.60;80.40;;;;;;4997547;28;20029;-74
2021/09/19 03:43:03;;;;;;;8.20;3.53;;;17.70;80.20;;;;;;5029406;28;20033;-74
2021/09/19 03:45:29;;;;;;;4.60;3.13;;;17.70;80.00;;;;;;5024697;28;20065;-74
2021/09/19 03:48:06;;;;;;;6.30;3.20;;;17.70;80.40;;;;;;5014903;28;20053;-74
2021/09/19 03:50:32;;;;;;;4.05;2.80;;;17.80;80.20;;;;;;4997389;28;20060;-75
2021/09/19 03:52:58;;;;;;;4.32;2.88;;;17.80;80.70;;;;;;4997499;28;20026;-74
2021/09/19 03:55:24;;;;;;;6.07;2.50;;;17.70;81.00;;;;;;4997313;28;20033;-74
2021/09/19 03:57:50;;;;;;;4.18;2.45;;;17.70;81.00;;;;;;5015080;28;20052;-74
2021/09/19 04:00:16;;;;;;;5.43;2.70;;;17.80;80.80;;;;;;4997343;28;20491;-74
2021/09/19 04:02:42;;;;;;;4.85;2.30;;;17.80;80.90;;;;;;5014886;28;20511;-74
2021/09/19 04:05:09;;;;;;;3.72;1.88;;;17.80;80.60;;;;;;4997226;28;20038;-74
2021/09/19 04:07:36;;;;;;;2.35;1.73;;;17.80;80.70;;;;;;5014743;28;20033;-75
2021/09/19 04:10:04;;;;;;;2.08;1.38;;;17.80;81.00;;;;;;5015410;28;20511;-74
2021/09/19 04:12:30;;;;;;;3.10;1.33;;;17.80;81.10;;;;;;5018603;28;20014;-74
2021/09/19 04:14:55;;;;;;;3.63;1.70;;;17.80;81.10;;;;;;5018310;28;20036;-74
2021/09/19 04:17:21;;;;;;;5.35;1.50;;;17.80;80.50;;;;;;5000912;28;20038;-74
2021/09/19 04:19:46;;;;;;;1.60;1.17;;;17.80;80.60;;;;;;5018369;28;20045;-74
2021/09/19 04:22:12;;;;;;;2.45;1.70;;;17.90;80.60;;;;;;5000478;28;20026;-73
2021/09/19 04:24:38;;;;;;;2.25;1.60;;;17.90;80.60;;;;;;5018278;28;20034;-74
2021/09/19 04:27:04;;;;;;;5.70;1.52;;;17.90;80.40;;;;;;5018152;28;20030;-74
2021/09/19 04:29:31;;;;;;;3.22;1.27;;;17.90;80.50;;;;;;5018632;28;20488;-74
2021/09/19 04:31:56;;;;;;;3.42;1.02;;;17.90;80.20;;;;;;5018053;28;20388;-74
2021/09/19 04:34:22;;;;;;;3.28;1.13;;;17.90;80.30;;;;;;5017839;28;20041;-74
2021/09/19 04:36:47;;;;;;;2.45;1.10;;;17.90;80.10;;;;;;5018022;28;20018;-74
2021/09/19 04:39:13;;;;;;;1.73;1.20;;;18.00;80.00;;;;;;5018102;28;20112;-74
2021/09/19 04:41:39;;;;;;;4.45;1.33;;;18.00;80.00;;;;;;5020630;28;20136;-74
2021/09/19 04:44:04;;;;;;;2.42;1.00;;;18.00;80.00;;;;;;5027137;28;20038;-74
2021/09/19 04:46:30;;;;;;;3.08;1.23;;;17.90;80.30;;;;;;5017973;28;20038;-74
2021/09/19 04:48:56;;;;;;;1.60;0.85;;;17.90;80.40;;;;;;5017772;28;20065;-75
2021/09/19 04:51:22;;;;;;;3.28;1.20;;;17.90;80.40;;;;;;5017746;28;20034;-74
2021/09/19 04:53:48;;;;;;;3.38;1.10;;;17.90;80.70;;;;;;5000146;28;20030;-73
2021/09/19 04:56:14;;;;;;;3.88;1.23;;;17.80;80.50;;;;;;4999884;28;20045;-74
2021/09/19 04:58:40;;;;;;;3.05;1.10;;;17.80;80.50;;;;;;4999945;28;20381;-75
2021/09/19 05:01:06;;;;;;;2.30;1.30;;;17.80;80.40;;;;;;5017609;28;20127;-74
2021/09/19 05:03:32;;;;;;;4.47;1.40;;;17.80;80.30;;;;;;5017111;28;20036;-74
2021/09/19 05:05:57;;;;;;;2.05;1.25;;;17.80;80.30;;;;;;5017432;28;20079;-74
2021/09/19 05:08:23;;;;;;;3.85;1.42;;;17.80;80.20;;;;;;5016769;28;20030;-74
2021/09/19 05:10:49;;;;;;;7.00;1.70;;;17.80;79.90;;;;;;5028704;28;20029;-74
2021/09/19 05:13:15;;;;;;;3.78;1.52;;;17.70;79.90;;;;;;5018914;28;20021;-74
2021/09/19 05:15:40;;;;;;;3.10;1.15;;;17.70;79.20;;;;;;5035061;28;20014;-74
2021/09/19 05:18:06;;;;;;;4.80;1.38;;;17.70;78.90;;;;;;5033670;28;20030;-74
2021/09/19 05:20:32;;;;;;;5.05;1.40;;;17.70;78.30;;;;;;5035927;28;20503;-74
2021/09/19 05:22:58;;;;;;;5.15;1.25;;;17.60;77.90;;;;;;5017899;28;20760;-74
2021/09/19 05:25:23;;;;;;;3.55;1.00;;;17.70;77.40;;;;;;5017110;28;20048;-74
2021/09/19 05:27:52;;;;;;;2.50;1.42;;;17.60;77.40;;;;;;5035916;28;20087;-74
2021/09/19 05:30:18;;;;;;;5.20;1.05;;;17.60;77.30;;;;;;5025246;28;20030;-74
2021/09/19 05:32:44;;;;;;;6.45;1.48;;;17.60;77.40;;;;;;5028939;28;20029;-74
2021/09/19 05:35:10;;;;;;;4.05;1.70;;;17.60;77.30;;;;;;5017558;28;20042;-74
2021/09/19 05:37:36;;;;;;;2.85;1.27;;;17.60;77.10;;;;;;5012161;28;20037;-81
2021/09/19 05:40:04;;;;;;;4.13;1.27;;;17.60;77.40;;;;;;5025995;28;20033;-80
2021/09/19 05:42:30;;;;;;;5.43;1.58;;;17.60;76.90;;;;;;5022711;28;20026;-81
2021/09/19 05:44:55;;;;;;;4.32;1.08;;;17.60;77.30;;;;;;5014919;28;20048;-81
2021/09/19 05:47:28;;;;;;;5.95;1.25;;;17.60;76.90;;;;;;5017237;28;20065;-80
2021/09/19 05:49:54;;;;;;;2.30;1.00;;;17.60;76.80;;;;;;5013636;28;20060;-80
2021/09/19 05:52:20;;;;;;;5.28;0.90;;;17.60;76.30;;;;;;5051445;28;20488;-79
2021/09/19 05:54:46;;;;;;;2.45;1.15;;;17.60;76.20;;;;;;5018306;28;20034;-81
2021/09/19 05:57:12;;;;;;;2.83;1.13;;;17.60;76.10;;;;;;5018054;28;20025;-80
2021/09/19 05:59:37;;;;;;;3.22;0.80;;;17.60;75.90;;;;;;5036047;28;20024;-82
2021/09/19 06:02:03;;;;;;;3.78;1.00;;;17.60;75.60;;;;;;5051437;28;20029;-90
2021/09/19 06:04:31;;;;;;;1.88;0.82;;;17.60;75.90;;;;;;5029010;28;20033;-79
2021/09/19 06:06:58;;;;;;;3.63;0.90;;;17.60;75.70;;;;;;5026105;28;20025;-78
2021/09/19 06:09:23;;;;;;;2.65;0.90;;;17.60;75.80;;;;;;5023882;28;20026;-77
2021/09/19 06:11:49;;;;;;;2.00;0.75;;;17.60;75.40;;;;;;5028176;28;20048;-77
2021/09/19 06:14:15;;;;;;;1.83;1.30;;;17.60;75.40;;;;;;5027603;28;20029;-77
2021/09/19 06:16:40;;;;;;;3.45;1.17;;;17.60;75.60;;;;;;5035729;28;20033;-78
2021/09/19 06:19:06;;;;;;;3.75;1.05;;;17.60;75.50;;;;;;5028729;28;20515;-78
2021/09/19 06:21:32;;;;;;;2.75;1.05;;;17.70;75.60;;;;;;5019686;28;20044;-78
2021/09/19 06:23:58;;;;;;;6.20;1.65;;;17.70;75.20;;;;;;5034625;28;20029;-77
2021/09/19 06:26:23;;;;;;;2.33;0.88;;;17.60;75.40;;;;;;5027544;28;20103;-78
2021/09/19 06:28:49;;;;;;;2.25;1.02;;;17.70;75.30;;;;;;5014883;28;20026;-77
2021/09/19 06:31:16;;;;;;;5.15;1.35;;;17.70;75.20;;;;;;5016953;28;20034;-77
2021/09/19 06:33:42;;;;;;;4.53;1.30;;;17.60;75.40;;;;;;5023666;28;20045;-77
2021/09/19 06:36:08;;;;;;;5.47;1.08;;;17.60;75.60;;;;;;5033460;28;20034;-77
2021/09/19 06:38:34;;;;;;;3.78;1.10;;;17.70;75.30;;;;;;5035381;28;20026;-75
2021/09/19 06:41:00;;;;;;;2.85;1.00;;;17.60;75.00;;;;;;5035490;28;20034;-79
2021/09/19 06:43:26;;;;;;;3.20;0.82;;;17.60;75.50;;;;;;5032577;28;20029;-79
2021/09/19 06:45:51;;;;;;;1.83;0.95;;;17.70;75.50;;;;;;5021904;28;20132;-77
2021/09/19 06:48:17;;;;;;;6.60;1.10;;;17.70;75.40;;;;;;5015327;28;20026;-78
2021/09/19 06:50:43;;;;;;;1.90;1.13;;;17.70;75.50;;;;;;5015388;28;20040;-81
2021/09/19 06:53:08;;;;;;;1.70;0.98;;;17.70;75.20;;;;;;5015633;28;20029;-80
2021/09/19 06:55:34;;;;;;;2.65;1.13;;;17.70;75.40;;;;;;4998839;28;20450;-79
2021/09/19 06:58:00;;;;;;;3.22;1.00;;;17.70;75.30;;;;;;5034684;28;20022;-79
2021/09/19 07:00:26;;;;;;;3.03;1.10;;;17.80;75.40;;;;;;5035335;28;20021;-79
2021/09/19 07:02:52;;;;;;;5.95;1.20;;;17.80;75.60;;;;;;5020647;28;20034;-80
2021/09/19 07:05:18;;;;;;;3.70;0.98;;;17.80;75.40;;;;;;5015303;28;20033;-83
2021/09/19 07:07:44;;;;;;;4.40;1.52;;;17.80;75.30;;;;;;4995687;28;20026;-79
2021/09/19 07:10:10;;;;;;;7.18;1.40;;;17.90;75.40;;;;;;5029322;28;20087;-79
2021/09/19 07:12:39;;;;;;;2.88;1.02;;;18.00;75.50;;;;;;5014991;28;20542;-86
2021/09/19 07:24:25;;;;;;;3.50;0.95;;;17.30;77.50;;;;;;5099596;27;20825;-80
2021/09/19 07:26:51;;;;;;;2.97;1.02;;;17.20;78.30;;;;;;5093395;28;20033;-81
2021/09/19 07:29:17;;;;;;;2.40;0.70;;;17.30;78.00;;;;;;5117670;28;20028;-82
2021/09/19 07:31:43;;;;;;;3.72;0.80;;;17.60;76.60;;;;;;5114815;28;20119;-79
2021/09/19 07:34:09;;;;;;;5.40;1.45;;;17.80;76.20;;;;;;5131491;28;20026;-86
2021/09/19 07:36:36;;;;;;;3.83;1.17;;;18.10;75.70;;;;;;5111588;28;20024;-83
2021/09/19 07:39:06;;;;;;;2.72;0.77;;;18.30;74.50;;;;;;5092771;28;20035;-81
2021/09/19 07:41:32;;;;;;;;;;;18.40;73.90;;;;;;5105598;28;20054;-80
2021/09/19 07:43:59;;;;;;;1.83;0.93;;;18.50;73.00;;;;;;5094938;28;19919;-88
2021/09/19 07:46:25;;;;;;;3.80;0.90;;;18.50;73.00;;;;;;5110008;28;20411;-85
2021/09/19 07:48:51;;;;;;;5.05;1.15;;;18.60;72.70;;;;;;5089426;28;20024;-79
2021/09/19 07:51:17;;;;;;;2.65;0.82;;;18.60;72.50;;;;;;5125039;28;20027;-80
2021/09/19 07:53:45;;;;;;;3.30;0.70;;;18.70;71.70;;;;;;5093106;28;20036;-80
2021/09/19 07:56:11;;;;;;;2.88;1.10;;;18.70;71.60;;;;;;5111201;28;20089;-79
2021/09/19 07:58:37;;;;;;;2.33;0.90;;;18.80;71.90;;;;;;5095770;28;20067;-82
2021/09/19 08:01:03;;;;;;;5.13;1.25;;;18.80;71.80;;;;;;5092229;28;20469;-85
2021/09/19 08:03:29;;;;;;;4.32;1.15;;;19.00;70.60;;;;;;5092508;28;20060;-78
2021/09/19 08:05:54;;;;;;;2.15;0.80;;;19.00;70.40;;;;;;5096952;28;20042;-87
2021/09/19 08:08:23;;;;;;;2.17;0.60;;;19.10;69.20;;;;;;5110623;28;20150;-80
2021/09/19 08:10:49;;;;;;;2.15;0.80;;;19.10;69.20;;;;;;5111802;28;20058;-81
2021/09/19 08:13:15;;;;;;;6.20;0.98;;;19.10;70.00;;;;;;5109199;28;20397;-84
2021/09/19 08:15:41;;;;;;;2.45;0.90;;;19.10;70.20;;;;;;5090188;28;20085;-82
2021/09/19 08:18:07;;;;;;;2.55;0.63;;;19.10;69.90;;;;;;5083553;28;20027;-80
2021/09/19 08:20:32;;;;;;;1.98;0.80;;;19.10;70.00;;;;;;5103887;28;20732;-84
2021/09/19 08:22:59;;;;;;;3.00;0.60;;;19.10;69.60;;;;;;5094634;28;20631;-87
2021/09/19 08:25:27;;;;;;;2.50;0.80;;;19.10;69.30;;;;;;5083813;28;20028;-81
2021/09/19 08:27:54;;;;;;;2.63;0.95;;;19.10;68.60;;;;;;5084898;28;20028;-80
2021/09/19 08:30:20;;;;;;;3.42;0.82;;;19.10;69.20;;;;;;5086398;28;20028;-78
2021/09/19 08:32:46;;;;;;;1.98;0.82;;;19.20;69.30;;;;;;5067050;28;20036;-80
2021/09/19 08:35:13;;;;;;;2.95;0.80;;;19.10;69.00;;;;;;5059863;28;20028;-79
2021/09/19 08:37:39;;;;;;;1.45;0.50;;;19.10;68.90;;;;;;5086178;28;20625;-81
2021/09/19 08:40:08;;;;;;;3.58;0.68;;;19.10;69.00;;;;;;5072367;28;20028;-78
2021/09/19 08:42:36;;;;;;;1.90;0.70;;;19.10;69.20;;;;;;5099649;28;20024;-81
2021/09/19 08:45:04;;;;;;;1.88;0.88;;;19.10;69.60;;;;;;5074512;28;20093;-83
2021/09/19 08:47:30;;;;;;;4.22;1.10;;;19.20;68.90;;;;;;5072705;28;20589;-83
2021/09/19 08:49:57;;;;;;;2.83;0.80;;;19.20;68.40;;;;;;5071452;28;20034;-87
2021/09/19 08:52:23;;;;;;;2.80;0.90;;;19.20;68.50;;;;;;5065322;28;20036;-81
2021/09/19 08:54:49;;;;;;;3.03;0.63;;;19.30;68.00;;;;;;5097131;28;20042;-82
2021/09/19 08:57:14;;;;;;;3.10;1.20;;;19.50;68.20;;;;;;5092099;28;20055;-89
2021/09/19 08:59:49;;;;;;;2.88;0.90;;;19.50;66.90;;;;;;5073193;28;20055;-87
2021/09/19 09:02:16;;;;;;;2.60;0.90;;;19.80;66.70;;;;;;5074144;28;20054;-89
2021/09/19 09:04:43;;;;;;;2.00;0.60;;;20.00;66.00;;;;;;5105622;28;20486;-80
2021/09/19 09:07:11;;;;;;;3.75;0.88;;;20.20;65.80;;;;;;5086749;28;20012;-82
2021/09/19 09:09:37;;;;;;;3.22;0.77;;;20.50;65.90;;;;;;5083631;28;20024;-82
2021/09/19 09:12:07;;;;;;;4.75;0.88;;;20.70;64.20;;;;;;5080520;28;20123;-84
2021/09/19 09:14:54;;;;;;;6.68;0.98;;;20.60;65.00;;;;;;5085144;28;20019;-82
2021/09/19 09:17:29;;;;;;;4.15;0.73;;;20.50;65.00;;;;;;5085032;28;20490;-80
2021/09/19 09:20:05;;;;;;;2.92;0.70;;;20.60;64.00;;;;;;5082179;28;20582;-81
2021/09/19 09:22:32;;;;;;;2.50;0.93;;;20.70;64.10;;;;;;5083477;28;20090;-79
2021/09/19 09:25:09;;;;;;;4.50;0.80;;;20.80;64.50;;;;;;5080873;28;20028;-85
2021/09/19 09:27:39;;;;;;;2.05;0.47;;;20.90;63.30;;;;;;5082177;28;20158;-83
2021/09/19 09:30:27;;;;;;;2.95;0.70;;;21.10;63.90;;;;;;5085637;28;20103;-85
2021/09/19 09:33:10;;;;;;;7.18;0.88;;;21.20;62.80;;;;;;5084496;28;20508;-79
2021/09/19 09:35:38;;;;;;;3.15;0.60;;;21.30;62.70;;;;;;5103330;28;20091;-81
2021/09/19 09:38:21;;;;;;;3.22;0.80;;;21.30;61.60;;;;;;5105040;27;20028;-87
2021/09/19 09:40:47;;;;;;;4.53;0.93;;;21.40;62.30;;;;;;5103023;27;20501;-73
2021/09/19 09:43:15;;;;;;;5.90;0.88;;;21.70;61.70;;;;;;5101793;27;20501;-74
2021/09/19 09:45:43;;;;;;;1.90;0.82;;;21.90;61.20;;;;;;5103632;27;20020;-71
2021/09/19 09:48:31;;;;;;;2.95;0.63;;;21.80;60.50;;;;;;5103135;27;20077;-74
2021/09/19 09:51:01;;;;;;;4.38;0.88;;;21.80;61.80;;;;;;5103244;27;20490;-72
2021/09/19 09:53:27;;;;;;;3.17;0.57;;;21.70;60.40;;;;;;5111875;27;20027;-72
2021/09/19 09:55:54;;;;;;;1.60;0.52;;;21.60;62.10;;;;;;5090383;28;20018;-72
2021/09/19 09:58:21;;;;;;;4.70;0.98;;;21.60;60.70;;;;;;5110404;27;20422;-71
2021/09/19 10:00:50;;;;;;;4.82;0.80;;;21.30;63.00;;;;;;5113213;27;20031;-71
2021/09/19 10:03:16;;;;;;;3.08;1.02;;;21.40;64.10;;;;;;5112358;27;20049;-72
2021/09/19 10:05:43;;;;;;;3.63;1.13;;;21.50;60.70;;;;;;5117103;28;20039;-73
2021/09/19 10:08:09;;;;;;;3.38;0.82;;;21.50;62.50;;;;;;5116930;27;20026;-73
2021/09/19 10:10:44;;;;;;;2.53;0.70;;;21.50;61.80;;;;;;5114915;27;20055;-71
2021/09/19 10:13:14;;;;;;;3.35;0.85;;;21.50;61.30;;;;;;5114396;27;20023;-72
2021/09/19 10:15:42;;;;;;;2.05;0.50;;;21.70;61.30;;;;;;5108074;27;20103;-73
2021/09/19 10:18:09;;;;;;;3.38;0.55;;;21.70;60.60;;;;;;5111856;27;20493;-70
2021/09/19 10:20:40;;;;;;;2.83;0.73;;;21.80;59.60;;;;;;5113575;27;20008;-71
2021/09/19 10:23:21;;;;;;;3.60;0.93;;;21.70;60.00;;;;;;5111041;27;20043;-73
2021/09/19 10:25:53;;;;;;;2.35;0.80;;;21.70;60.00;;;;;;5111978;27;20499;-73
2021/09/19 10:28:21;;;;;;;1.90;0.80;;;21.60;60.80;;;;;;5115893;28;20023;-72
2021/09/19 10:31:09;;;;;;;5.35;0.98;;;21.70;60.20;;;;;;5113223;28;20030;-72
2021/09/19 10:33:54;;;;;;;1.92;0.68;;;21.60;59.50;;;;;;5114096;28;20035;-72
2021/09/19 10:36:29;;;;;;;2.45;1.05;;;21.50;60.50;;;;;;5113649;28;20027;-71
2021/09/19 10:39:17;;;;;;;5.25;1.00;;;21.50;60.50;;;;;;5094651;28;20028;-72
2021/09/19 10:42:05;;;;;;;3.92;0.70;;;21.60;60.00;;;;;;5100782;27;20039;-77
2021/09/19 10:44:43;;;;;;;6.43;1.23;;;21.50;59.70;;;;;;5097977;28;20084;-76
2021/09/19 10:47:10;;;;;;;2.60;0.70;;;21.40;59.00;;;;;;5095863;28;20046;-77
2021/09/19 10:49:36;;;;;;;3.25;0.88;;;21.40;60.70;;;;;;5095744;28;20027;-77
2021/09/19 10:52:02;;;;;;;3.15;1.05;;;21.60;59.50;;;;;;5102347;28;20024;-80
2021/09/19 10:54:44;;;;;;;4.75;0.73;;;21.70;59.20;;;;;;5093699;28;20047;-75
2021/09/19 10:57:21;;;;;;;4.75;1.33;;;21.90;58.40;;;;;;5093033;28;20031;-76
2021/09/19 11:00:08;;;;;;;1.75;0.90;;;22.00;58.10;;;;;;5095509;28;20085;-75
2021/09/19 11:02:58;;;;;;;2.00;0.70;;;22.00;57.60;;;;;;5095483;28;20035;-75
2021/09/19 11:05:29;;;;;;;2.35;0.90;;;22.00;58.70;;;;;;5108783;28;20370;-75
2021/09/19 11:08:07;;;;;;;2.65;1.00;;;22.20;57.70;;;;;;5115726;28;20524;-75
2021/09/19 11:10:34;;;;;;;2.10;0.70;;;22.30;57.60;;;;;;5097376;28;20023;-75
2021/09/19 11:13:20;;;;;;;2.63;0.63;;;22.60;56.70;;;;;;5093818;28;20073;-76
2021/09/19 11:16:06;;;;;;;2.28;0.93;;;22.90;56.80;;;;;;5114319;28;20046;-77
2021/09/19 11:18:42;;;;;;;6.05;1.73;;;22.90;54.80;;;;;;5097660;28;20036;-77
2021/09/19 11:21:32;;;;;;;3.88;1.35;;;23.00;56.70;;;;;;5090858;28;20024;-74
2021/09/19 11:24:02;;;;;;;;;;;22.90;55.80;;;;;;5097577;28;20047;-76
2021/09/19 11:26:33;;;;;;;3.80;0.90;;;22.90;55.70;;;;;;5106864;28;20265;-83
2021/09/19 11:29:01;;;;;;;3.63;1.05;;;22.70;56.40;;;;;;5112805;28;20398;-78
2021/09/19 11:31:27;;;;;;;2.13;0.80;;;22.60;55.20;;;;;;5112908;28;20545;-78
2021/09/19 11:33:53;;;;;;;4.53;1.00;;;22.80;56.50;;;;;;5104601;28;20081;-76
2021/09/19 11:36:20;;;;;;;4.70;0.60;;;22.80;55.70;;;;;;5094691;28;20024;-75
2021/09/19 11:38:49;;;;;;;3.70;0.80;;;22.90;54.20;;;;;;5076663;28;20080;-74
2021/09/19 11:41:16;;;;;;;2.03;0.70;;;23.30;55.50;;;;;;5096662;28;20054;-77
2021/09/19 11:43:43;;;;;;;3.53;1.33;;;23.50;55.60;;;;;;5116934;28;20030;-74
2021/09/19 11:46:13;;;;;;;3.97;0.85;;;23.50;53.80;;;;;;5135627;28;20458;-75
2021/09/19 11:48:39;;;;;;;;;;;23.50;54.40;;;;;;5107629;28;20670;-75
2021/09/19 11:51:06;;;;;;;2.25;0.73;;;23.30;53.30;;;;;;5115189;28;20330;-75
2021/09/19 11:53:33;;;;;;;1.40;0.57;;;23.30;53.80;;;;;;5092116;28;20115;-75
2021/09/19 11:55:59;;;;;;;2.92;0.43;;;23.10;54.90;;;;;;5078122;28;20087;-74
2021/09/19 11:58:25;;;;;;;1.67;0.63;;;23.00;53.70;;;;;;5083026;28;20124;-76
2021/09/19 12:01:00;;;;;;;2.42;0.40;;;22.90;54.80;;;;;;5109687;28;20020;-82
2021/09/19 12:03:35;;;;;;;1.92;0.65;;;22.80;53.20;;;;;;5110793;28;20423;-82
2021/09/19 12:06:01;;;;;;;1.85;0.60;;;22.90;53.70;;;;;;5104240;28;20032;-79
2021/09/19 12:08:33;;;;;;;4.13;1.00;;;23.10;53.10;;;;;;5096677;28;20046;-85
2021/09/19 12:11:00;;;;;;;1.75;0.60;;;23.40;52.50;;;;;;5117578;28;20031;-80
2021/09/19 12:13:34;;;;;;;2.10;0.57;;;23.60;53.00;;;;;;5118956;28;20485;-82
2021/09/19 12:16:06;;;;;;;2.35;0.40;;;23.70;53.40;;;;;;5114481;28;20477;-81
2021/09/19 12:18:34;;;;;;;2.03;0.60;;;23.50;51.90;;;;;;5101687;28;20111;-82
2021/09/19 12:21:07;;;;;;;1.25;0.50;;;23.20;53.00;;;;;;5098486;28;20024;-80
2021/09/19 12:23:48;;;;;;;2.90;0.82;;;23.00;53.80;;;;;;5098749;28;20055;-83
2021/09/19 12:26:20;;;;;;;1.30;0.50;;;22.90;54.20;;;;;;5098494;28;20038;-81
2021/09/19 12:28:48;;;;;;;0.95;0.50;;;22.90;53.90;;;;;;5080078;28;20088;-84
2021/09/19 12:31:32;;;;;;;2.33;0.80;;;22.80;54.10;;;;;;5080125;28;20127;-86
2021/09/19 12:33:57;;;;;;;1.75;0.63;;;22.80;53.40;;;;;;5101266;28;20024;-82
2021/09/19 12:36:23;;;;;;;1.75;0.68;;;23.10;53.60;;;;;;5111091;28;20060;-84
2021/09/19 12:38:49;;;;;;;2.60;0.60;;;23.30;52.30;;;;;;5107895;28;20383;-83
2021/09/19 12:41:18;;;;;;;2.17;0.50;;;23.30;51.40;;;;;;5105433;28;20699;-86
2021/09/19 12:43:45;;;;;;;1.80;0.57;;;23.40;51.80;;;;;;5091462;28;20593;-88
2021/09/19 12:46:15;;;;;;;2.00;0.47;;;23.50;52.30;;;;;;5095668;28;20055;-90
2021/09/19 12:48:43;;;;;;;1.77;0.50;;;23.50;51.60;;;;;;5095986;28;20039;-89
2021/09/19 12:51:13;;;;;;;1.20;0.40;;;23.30;51.80;;;;;;5109550;28;20824;-84
2021/09/19 12:53:40;;;;;;;1.38;0.45;;;23.30;52.50;;;;;;5111918;28;20127;-83
2021/09/19 12:56:06;;;;;;;1.88;0.40;;;23.40;52.00;;;;;;5110185;28;20088;-80
2021/09/19 12:58:32;;;;;;;1.88;0.50;;;23.50;51.80;;;;;;5094804;28;20023;-82
2021/09/19 13:00:58;;;;;;;2.65;0.70;;;23.50;50.60;;;;;;5094921;28;20680;-87